createdAt,value
2023-10-08T00:00:22.707Z,1028.23
2023-10-08T00:01:23.614Z,1028.27
2023-10-08T00:02:24.487Z,1028.24
2023-10-08T00:03:25.393Z,1028.20
2023-10-08T00:04:26.312Z,1028.18
2023-10-08T00:05:27.157Z,1028.18
2023-10-08T00:06:28.028Z,1028.19
2023-10-08T00:07:28.967Z,1028.21
2023-10-08T00:08:29.808Z,1028.20
2023-10-08T00:09:30.702Z,1028.18
2023-10-08T00:10:31.551Z,1028.16
2023-10-08T00:11:32.492Z,1028.13
2023-10-08T00:12:33.324Z,1028.15
2023-10-08T00:13:34.205Z,1028.15
2023-10-08T00:14:35.100Z,1028.18
2023-10-08T00:15:35.967Z,1028.18
2023-10-08T00:16:36.883Z,1028.17
2023-10-08T00:17:37.842Z,1028.18
2023-10-08T00:18:38.779Z,1028.15
2023-10-08T00:19:39.654Z,1028.13
2023-10-08T00:20:40.631Z,1028.12
2023-10-08T00:21:41.108Z,1028.13
2023-10-08T00:22:41.984Z,1028.16
2023-10-08T00:23:42.936Z,1028.10
2023-10-08T00:24:43.387Z,1028.09
2023-10-08T00:25:44.260Z,1028.10
2023-10-08T00:26:45.163Z,1028.10
2023-10-08T00:27:46.010Z,1028.09
2023-10-08T00:28:46.892Z,1028.11
2023-10-08T00:29:47.839Z,1028.13
2023-10-08T00:30:48.739Z,1028.13
2023-10-08T00:31:49.607Z,1028.12
2023-10-08T00:32:50.527Z,1028.14
2023-10-08T00:33:51.382Z,1028.15
2023-10-08T00:34:52.272Z,1028.15
2023-10-08T00:35:53.194Z,1028.16
2023-10-08T00:36:54.038Z,1028.16
2023-10-08T00:37:54.916Z,1028.14
2023-10-08T00:38:55.789Z,1028.14
2023-10-08T00:39:56.698Z,1028.15
2023-10-08T00:40:57.550Z,1028.15
2023-10-08T00:41:58.428Z,1028.17
2023-10-08T00:42:59.304Z,1028.15
2023-10-08T00:44:00.192Z,1028.16
2023-10-08T00:45:01.120Z,1028.13
2023-10-08T00:46:02.007Z,1028.13
2023-10-08T00:47:03.175Z,1028.10
2023-10-08T00:48:03.668Z,1028.12
2023-10-08T00:49:04.526Z,1028.10
2023-10-08T00:50:05.405Z,1028.16
2023-10-08T00:51:06.278Z,1028.17
2023-10-08T00:52:07.174Z,1028.20
2023-10-08T00:53:08.064Z,1028.20
2023-10-08T00:54:08.938Z,1028.22
2023-10-08T00:55:09.830Z,1028.26
2023-10-08T00:56:10.736Z,1028.23
2023-10-08T00:57:11.603Z,1028.18
2023-10-08T00:58:12.509Z,1028.12
2023-10-08T00:59:13.527Z,1028.10
2023-10-08T01:00:13.993Z,1028.11
2023-10-08T01:01:14.894Z,1028.13
2023-10-08T01:02:15.798Z,1028.16
2023-10-08T01:03:17.309Z,1028.19
2023-10-08T01:04:17.782Z,1028.18
2023-10-08T01:05:18.192Z,1028.17
2023-10-08T01:06:19.060Z,1028.14
2023-10-08T01:07:19.932Z,1028.13
2023-10-08T01:08:20.819Z,1028.13
2023-10-08T01:09:21.717Z,1028.12
2023-10-08T01:10:22.715Z,1028.12
2023-10-08T01:11:23.566Z,1028.13
2023-10-08T01:12:24.433Z,1028.11
2023-10-08T01:13:25.315Z,1028.14
2023-10-08T01:14:26.214Z,1028.15
2023-10-08T01:15:27.077Z,1028.15
2023-10-08T01:16:27.955Z,1028.13
2023-10-08T01:17:28.827Z,1028.16
2023-10-08T01:18:29.722Z,1028.20
2023-10-08T01:19:30.586Z,1028.22
2023-10-08T01:20:31.510Z,1028.19
2023-10-08T01:21:32.369Z,1028.18
2023-10-08T01:22:33.257Z,1028.16
2023-10-08T01:23:34.152Z,1028.19
2023-10-08T01:24:35.020Z,1028.22
2023-10-08T01:25:35.913Z,1028.21
2023-10-08T01:26:36.852Z,1028.19
2023-10-08T01:27:37.705Z,1028.17
2023-10-08T01:28:38.583Z,1028.13
2023-10-08T01:29:39.507Z,1028.07
2023-10-08T01:30:40.367Z,1028.11
2023-10-08T01:31:41.221Z,1028.11
2023-10-08T01:32:42.312Z,1028.12
2023-10-08T01:33:42.703Z,1028.15
2023-10-08T01:34:43.584Z,1028.19
2023-10-08T01:35:44.620Z,1028.14
2023-10-08T01:36:45.000Z,1028.14
2023-10-08T01:37:45.861Z,1028.14
2023-10-08T01:38:46.767Z,1028.15
2023-10-08T01:39:47.621Z,1028.19
2023-10-08T01:40:48.540Z,1028.22
2023-10-08T01:41:49.426Z,1028.22
2023-10-08T01:42:50.277Z,1028.20
2023-10-08T01:43:51.227Z,1028.19
2023-10-08T01:44:52.157Z,1028.16
2023-10-08T01:45:53.116Z,1028.14
2023-10-08T01:46:53.997Z,1028.13
2023-10-08T01:47:54.921Z,1028.14
2023-10-08T01:48:55.795Z,1028.16
2023-10-08T01:49:56.664Z,1028.13
2023-10-08T01:50:57.557Z,1028.10
2023-10-08T01:51:58.440Z,1028.14
2023-10-08T01:52:59.323Z,1028.19
2023-10-08T01:54:00.309Z,1028.19
2023-10-08T01:55:00.750Z,1028.16
2023-10-08T01:56:01.708Z,1028.13
2023-10-08T01:57:02.536Z,1028.13
2023-10-08T01:58:03.406Z,1028.12
2023-10-08T01:59:04.299Z,1028.07
2023-10-08T02:00:05.179Z,1028.09
2023-10-08T02:01:06.054Z,1028.10
2023-10-08T02:02:06.966Z,1028.09
2023-10-08T02:03:07.958Z,1028.10
2023-10-08T02:04:08.935Z,1028.04
2023-10-08T02:05:09.865Z,1028.06
2023-10-08T02:06:10.275Z,1028.15
2023-10-08T02:07:11.157Z,1028.19
2023-10-08T02:08:12.097Z,1028.15
2023-10-08T02:09:13.139Z,1028.15
2023-10-08T02:10:13.568Z,1028.09
2023-10-08T02:11:14.564Z,1028.04
2023-10-08T02:12:15.667Z,1028.00
2023-10-08T02:13:16.014Z,1028.06
2023-10-08T02:14:16.986Z,1028.08
2023-10-08T02:15:17.848Z,1028.06
2023-10-08T02:16:18.746Z,1028.04
2023-10-08T02:17:19.633Z,1027.94
2023-10-08T02:18:20.576Z,1027.85
2023-10-08T02:19:21.001Z,1027.88
2023-10-08T02:20:21.904Z,1027.98
2023-10-08T02:21:22.776Z,1028.03
2023-10-08T02:22:23.640Z,1028.02
2023-10-08T02:23:24.550Z,1027.98
2023-10-08T02:24:25.402Z,1027.96
2023-10-08T02:25:26.283Z,1027.92
2023-10-08T02:26:27.227Z,1027.89
2023-10-08T02:27:28.056Z,1027.88
2023-10-08T02:28:29.392Z,1027.85
2023-10-08T02:29:29.794Z,1027.84
2023-10-08T02:30:30.658Z,1027.85
2023-10-08T02:31:31.618Z,1027.84
2023-10-08T02:32:32.544Z,1027.80
2023-10-08T02:33:33.504Z,1027.76
2023-10-08T02:34:34.328Z,1027.74
2023-10-08T02:35:35.228Z,1027.71
2023-10-08T02:36:36.084Z,1027.72
2023-10-08T02:37:36.968Z,1027.70
2023-10-08T02:38:37.866Z,1027.65
2023-10-08T02:39:38.731Z,1027.67
2023-10-08T02:40:39.628Z,1027.67
2023-10-08T02:41:40.557Z,1027.70
2023-10-08T02:42:41.406Z,1027.69
2023-10-08T02:43:42.282Z,1027.71
2023-10-08T02:44:43.359Z,1027.75
2023-10-08T02:45:43.801Z,1027.69
2023-10-08T02:46:44.678Z,1027.66
2023-10-08T02:47:45.634Z,1027.61
2023-10-08T02:48:46.530Z,1027.62
2023-10-08T02:49:47.418Z,1027.66
2023-10-08T02:50:48.330Z,1027.66
2023-10-08T02:51:49.244Z,1027.69
2023-10-08T02:52:50.130Z,1027.73
2023-10-08T02:53:51.088Z,1027.72
2023-10-08T02:54:51.951Z,1027.64
2023-10-08T02:55:52.838Z,1027.61
2023-10-08T02:56:53.767Z,1027.63
2023-10-08T02:57:54.648Z,1027.67
2023-10-08T02:58:55.517Z,1027.68
2023-10-08T02:59:56.423Z,1027.64
2023-10-08T03:00:57.276Z,1027.65
2023-10-08T03:01:58.170Z,1027.61
2023-10-08T03:02:59.244Z,1027.57
2023-10-08T03:03:59.884Z,1027.59
2023-10-08T03:05:00.303Z,1027.60
2023-10-08T03:06:01.175Z,1027.59
2023-10-08T03:07:02.056Z,1027.56
2023-10-08T03:08:02.946Z,1027.51
2023-10-08T03:09:03.829Z,1027.53
2023-10-08T03:10:05.169Z,1027.54
2023-10-08T03:11:05.329Z,1027.55
2023-10-08T03:12:06.248Z,1027.57
2023-10-08T03:13:07.128Z,1027.54
2023-10-08T03:14:08.010Z,1027.52
2023-10-08T03:15:08.882Z,1027.49
2023-10-08T03:16:09.853Z,1027.49
2023-10-08T03:17:10.735Z,1027.52
2023-10-08T03:18:11.758Z,1027.54
2023-10-08T03:19:12.428Z,1027.54
2023-10-08T03:20:12.998Z,1027.52
2023-10-08T03:21:13.887Z,1027.48
2023-10-08T03:22:14.757Z,1027.48
2023-10-08T03:23:15.642Z,1027.48
2023-10-08T03:24:16.508Z,1027.47
2023-10-08T03:25:17.393Z,1027.44
2023-10-08T03:26:18.308Z,1027.44
2023-10-08T03:27:19.171Z,1027.44
2023-10-08T03:28:20.024Z,1027.46
2023-10-08T03:29:20.945Z,1027.45
2023-10-08T03:30:21.821Z,1027.45
2023-10-08T03:31:22.740Z,1027.48
2023-10-08T03:32:23.618Z,1027.49
2023-10-08T03:34:25.348Z,1027.42
2023-10-08T03:35:26.309Z,1027.41
2023-10-08T03:36:27.187Z,1027.40
2023-10-08T03:37:28.065Z,1027.38
2023-10-08T03:38:29.085Z,1027.40
2023-10-08T03:39:29.458Z,1027.42
2023-10-08T03:40:30.351Z,1027.43
2023-10-08T03:41:31.375Z,1027.41
2023-10-08T03:42:31.755Z,1027.40
2023-10-08T03:43:32.614Z,1027.40
2023-10-08T03:44:33.547Z,1027.40
2023-10-08T03:45:34.424Z,1027.40
2023-10-08T03:46:35.273Z,1027.39
2023-10-08T03:47:36.208Z,1027.35
2023-10-08T03:48:37.119Z,1027.34
2023-10-08T03:49:38.012Z,1027.35
2023-10-08T03:50:38.952Z,1027.36
2023-10-08T03:51:39.806Z,1027.36
2023-10-08T03:52:40.686Z,1027.35
2023-10-08T03:53:41.619Z,1027.33
2023-10-08T03:54:42.468Z,1027.30
2023-10-08T03:55:43.360Z,1027.30
2023-10-08T03:56:44.249Z,1027.29
2023-10-08T03:57:45.131Z,1027.30
2023-10-08T03:58:46.003Z,1027.28
2023-10-08T03:59:46.907Z,1027.28
2023-10-08T04:00:47.762Z,1027.28
2023-10-08T04:01:48.648Z,1027.29
2023-10-08T04:02:49.637Z,1027.30
2023-10-08T04:03:50.144Z,1027.27
2023-10-08T04:04:51.000Z,1027.28
2023-10-08T04:05:51.908Z,1027.26
2023-10-08T04:06:52.813Z,1027.26
2023-10-08T04:07:53.699Z,1027.28
2023-10-08T04:08:54.620Z,1027.27
2023-10-08T04:09:55.501Z,1027.28
2023-10-08T04:10:56.351Z,1027.25
2023-10-08T04:11:59.767Z,1027.28
2023-10-08T04:12:58.171Z,1027.26
2023-10-08T04:13:59.062Z,1027.24
2023-10-08T04:14:59.928Z,1027.22
2023-10-08T04:16:00.862Z,1027.21
2023-10-08T04:17:01.698Z,1027.21
2023-10-08T04:18:02.684Z,1027.20
2023-10-08T04:19:03.540Z,1027.21
2023-10-08T04:20:04.422Z,1027.16
2023-10-08T04:21:05.305Z,1027.16
2023-10-08T04:22:06.199Z,1027.16
2023-10-08T04:23:07.078Z,1027.17
2023-10-08T04:24:07.967Z,1027.17
2023-10-08T04:25:08.832Z,1027.16
2023-10-08T04:26:09.717Z,1027.18
2023-10-08T04:27:10.656Z,1027.16
2023-10-08T04:28:11.122Z,1027.15
2023-10-08T04:29:12.166Z,1027.16
2023-10-08T04:30:12.552Z,1027.15
2023-10-08T04:31:13.464Z,1027.15
2023-10-08T04:32:14.332Z,1027.15
2023-10-08T04:33:15.320Z,1027.15
2023-10-08T04:34:16.171Z,1027.15
2023-10-08T04:35:17.055Z,1027.14
2023-10-08T04:36:17.931Z,1027.15
2023-10-08T04:37:18.806Z,1027.13
2023-10-08T04:38:19.831Z,1027.11
2023-10-08T04:39:20.250Z,1027.08
2023-10-08T04:40:21.127Z,1027.08
2023-10-08T04:41:22.049Z,1027.05
2023-10-08T04:42:22.932Z,1027.03
2023-10-08T04:43:23.839Z,1027.04
2023-10-08T04:44:24.701Z,1027.01
2023-10-08T04:45:25.550Z,1027.01
2023-10-08T04:46:26.459Z,1026.97
2023-10-08T04:47:27.437Z,1026.97
2023-10-08T04:48:28.403Z,1027.02
2023-10-08T04:49:29.025Z,1027.01
2023-10-08T04:50:29.524Z,1027.00
2023-10-08T04:51:30.391Z,1026.98
2023-10-08T04:52:31.276Z,1026.99
2023-10-08T04:53:32.229Z,1026.94
2023-10-08T04:54:33.089Z,1026.94
2023-10-08T04:55:33.975Z,1026.91
2023-10-08T04:56:34.910Z,1026.90
2023-10-08T04:57:35.757Z,1026.90
2023-10-08T04:58:36.706Z,1026.90
2023-10-08T04:59:37.566Z,1026.90
2023-10-08T05:00:38.419Z,1026.89
2023-10-08T05:01:39.351Z,1026.91
2023-10-08T05:02:40.310Z,1026.90
2023-10-08T05:03:41.239Z,1026.89
2023-10-08T05:04:42.165Z,1026.87
2023-10-08T05:05:43.054Z,1026.87
2023-10-08T05:06:43.903Z,1026.86
2023-10-08T05:07:44.787Z,1026.84
2023-10-08T05:08:45.732Z,1026.84
2023-10-08T05:09:46.578Z,1026.84
2023-10-08T05:10:47.413Z,1026.85
2023-10-08T05:11:48.373Z,1026.86
2023-10-08T05:12:49.200Z,1026.85
2023-10-08T05:13:50.038Z,1026.85
2023-10-08T05:14:50.879Z,1026.85
2023-10-08T05:15:51.737Z,1026.85
2023-10-08T05:16:52.516Z,1026.84
2023-10-08T05:17:53.433Z,1026.83
2023-10-08T05:18:54.328Z,1026.84
2023-10-08T05:19:55.177Z,1026.82
2023-10-08T05:20:56.018Z,1026.82
2023-10-08T05:21:56.833Z,1026.81
2023-10-08T05:22:57.662Z,1026.81
2023-10-08T05:23:58.494Z,1026.80
2023-10-08T05:24:59.314Z,1026.80
2023-10-08T05:26:00.143Z,1026.79
2023-10-08T05:27:00.961Z,1026.81
2023-10-08T05:28:01.785Z,1026.81
2023-10-08T05:29:02.841Z,1026.81
2023-10-08T05:30:03.166Z,1026.78
2023-10-08T05:31:04.020Z,1026.77
2023-10-08T05:32:04.820Z,1026.77
2023-10-08T05:33:05.777Z,1026.78
2023-10-08T05:34:06.631Z,1026.77
2023-10-08T05:35:07.460Z,1026.79
2023-10-08T05:36:08.280Z,1026.77
2023-10-08T05:37:09.106Z,1026.79
2023-10-08T05:38:10.021Z,1026.76
2023-10-08T05:39:11.175Z,1026.77
2023-10-08T05:40:11.608Z,1026.79
2023-10-08T05:41:12.439Z,1026.76
2023-10-08T05:42:13.254Z,1026.75
2023-10-08T05:43:14.119Z,1026.77
2023-10-08T05:44:14.946Z,1026.80
2023-10-08T05:45:15.777Z,1026.81
2023-10-08T05:46:16.573Z,1026.83
2023-10-08T05:47:17.483Z,1026.86
2023-10-08T05:48:18.379Z,1026.83
2023-10-08T05:49:19.190Z,1026.86
2023-10-08T05:50:20.060Z,1026.85
2023-10-08T05:51:20.856Z,1026.84
2023-10-08T05:52:21.682Z,1026.87
2023-10-08T05:53:22.534Z,1026.90
2023-10-08T05:54:23.336Z,1026.89
2023-10-08T05:55:24.160Z,1026.89
2023-10-08T05:56:25.053Z,1026.90
2023-10-08T05:57:25.836Z,1026.90
2023-10-08T05:58:26.645Z,1026.94
2023-10-08T05:59:27.524Z,1026.95
2023-10-08T06:00:28.291Z,1026.91
2023-10-08T06:01:29.137Z,1026.91
2023-10-08T06:02:30.287Z,1026.92
2023-10-08T06:03:30.775Z,1026.90
2023-10-08T06:04:31.630Z,1026.86
2023-10-08T06:05:32.468Z,1026.84
2023-10-08T06:06:33.282Z,1026.90
2023-10-08T06:07:34.121Z,1026.93
2023-10-08T06:08:34.971Z,1026.89
2023-10-08T06:09:35.761Z,1026.93
2023-10-08T06:10:36.601Z,1026.97
2023-10-08T06:11:37.460Z,1026.98
2023-10-08T06:12:38.254Z,1026.95
2023-10-08T06:13:39.077Z,1026.96
2023-10-08T06:14:39.968Z,1026.93
2023-10-08T06:15:40.738Z,1026.95
2023-10-08T06:16:41.632Z,1026.94
2023-10-08T06:17:42.455Z,1026.96
2023-10-08T06:18:43.367Z,1026.96
2023-10-08T06:19:44.221Z,1026.97
2023-10-08T06:20:45.070Z,1027.00
2023-10-08T06:21:45.881Z,1026.99
2023-10-08T06:22:46.709Z,1027.00
2023-10-08T06:23:47.652Z,1026.94
2023-10-08T06:24:48.463Z,1027.00
2023-10-08T06:25:49.299Z,1027.03
2023-10-08T06:26:50.412Z,1027.07
2023-10-08T06:27:50.796Z,1027.07
2023-10-08T06:28:51.624Z,1027.10
2023-10-08T06:29:52.500Z,1027.09
2023-10-08T06:30:53.414Z,1027.12
2023-10-08T06:31:54.215Z,1027.13
2023-10-08T06:32:55.184Z,1027.16
2023-10-08T06:33:55.595Z,1027.15
2023-10-08T06:34:56.420Z,1027.17
2023-10-08T06:35:57.274Z,1027.19
2023-10-08T06:36:58.077Z,1027.18
2023-10-08T06:37:58.903Z,1027.15
2023-10-08T06:38:59.782Z,1027.18
2023-10-08T06:40:00.403Z,1027.19
2023-10-08T06:41:01.216Z,1027.17
2023-10-08T06:42:02.176Z,1027.17
2023-10-08T06:43:02.586Z,1027.20
2023-10-08T06:44:03.411Z,1027.21
2023-10-08T06:45:04.269Z,1027.20
2023-10-08T06:46:05.071Z,1027.23
2023-10-08T06:47:05.897Z,1027.23
2023-10-08T06:48:06.978Z,1027.21
2023-10-08T06:49:07.413Z,1027.26
2023-10-08T06:50:08.241Z,1027.29
2023-10-08T06:51:09.067Z,1027.28
2023-10-08T06:52:09.886Z,1027.30
2023-10-08T06:53:10.711Z,1027.30
2023-10-08T06:54:11.549Z,1027.34
2023-10-08T06:55:12.379Z,1027.39
2023-10-08T06:56:13.190Z,1027.40
2023-10-08T06:57:14.018Z,1027.41
2023-10-08T06:58:14.848Z,1027.40
2023-10-08T06:59:15.684Z,1027.42
2023-10-08T07:00:16.520Z,1027.42
2023-10-08T07:01:17.331Z,1027.44
2023-10-08T07:02:18.171Z,1027.45
2023-10-08T07:03:19.421Z,1027.47
2023-10-08T07:04:20.390Z,1027.48
2023-10-08T07:05:20.680Z,1027.50
2023-10-08T07:06:21.114Z,1027.48
2023-10-08T07:07:21.906Z,1027.42
2023-10-08T07:08:22.753Z,1027.38
2023-10-08T07:09:23.761Z,1027.37
2023-10-08T07:10:24.369Z,1027.41
2023-10-08T07:11:25.197Z,1027.47
2023-10-08T07:12:26.125Z,1027.49
2023-10-08T07:13:26.936Z,1027.52
2023-10-08T07:14:28.194Z,1027.55
2023-10-08T07:15:28.608Z,1027.57
2023-10-08T07:16:29.446Z,1027.57
2023-10-08T07:17:30.339Z,1027.60
2023-10-08T07:18:31.251Z,1027.60
2023-10-08T07:19:32.084Z,1027.62
2023-10-08T07:20:32.933Z,1027.60
2023-10-08T07:21:33.741Z,1027.61
2023-10-08T07:22:34.582Z,1027.64
2023-10-08T07:23:35.437Z,1027.67
2023-10-08T07:24:36.283Z,1027.66
2023-10-08T07:25:37.097Z,1027.70
2023-10-08T07:26:38.287Z,1027.81
2023-10-08T07:27:38.745Z,1027.86
2023-10-08T07:28:39.538Z,1027.86
2023-10-08T07:29:40.400Z,1027.88
2023-10-08T07:30:41.291Z,1027.82
2023-10-08T07:31:42.090Z,1027.76
2023-10-08T07:32:42.987Z,1027.76
2023-10-08T07:33:43.481Z,1027.76
2023-10-08T07:34:44.257Z,1027.77
2023-10-08T07:35:45.155Z,1027.71
2023-10-08T07:36:45.937Z,1027.74
2023-10-08T07:37:46.742Z,1027.80
2023-10-08T07:38:47.593Z,1027.84
2023-10-08T07:39:48.799Z,1027.84
2023-10-08T07:40:49.123Z,1027.84
2023-10-08T07:41:49.981Z,1027.84
2023-10-08T07:42:50.791Z,1027.87
2023-10-08T07:43:51.620Z,1027.88
2023-10-08T07:44:52.484Z,1027.87
2023-10-08T07:45:53.391Z,1027.86
2023-10-08T07:46:54.163Z,1027.80
2023-10-08T07:47:55.116Z,1027.77
2023-10-08T07:48:55.962Z,1027.74
2023-10-08T07:49:56.767Z,1027.76
2023-10-08T07:50:57.699Z,1027.76
2023-10-08T07:51:58.508Z,1027.75
2023-10-08T07:52:59.329Z,1027.69
2023-10-08T07:54:00.193Z,1027.71
2023-10-08T07:55:00.996Z,1027.74
2023-10-08T07:56:01.832Z,1027.75
2023-10-08T07:57:02.762Z,1027.72
2023-10-08T07:58:03.577Z,1027.71
2023-10-08T07:59:04.397Z,1027.78
2023-10-08T08:00:05.253Z,1027.87
2023-10-08T08:01:06.073Z,1027.88
2023-10-08T08:02:06.921Z,1027.90
2023-10-08T08:03:07.792Z,1027.91
2023-10-08T08:04:08.653Z,1027.94
2023-10-08T08:05:09.444Z,1027.98
2023-10-08T08:06:10.343Z,1027.98
2023-10-08T08:07:11.148Z,1028.04
2023-10-08T08:08:11.973Z,1028.05
2023-10-08T08:09:12.800Z,1028.09
2023-10-08T08:10:13.626Z,1028.08
2023-10-08T08:11:14.455Z,1028.10
2023-10-08T08:12:15.283Z,1028.11
2023-10-08T08:13:16.111Z,1028.12
2023-10-08T08:14:16.938Z,1028.08
2023-10-08T08:15:17.786Z,1028.09
2023-10-08T08:16:18.765Z,1028.13
2023-10-08T08:17:19.567Z,1028.21
2023-10-08T08:18:20.453Z,1028.22
2023-10-08T08:19:21.280Z,1028.19
2023-10-08T08:20:22.224Z,1028.18
2023-10-08T08:21:23.078Z,1028.17
2023-10-08T08:22:24.564Z,1028.18
2023-10-08T08:23:24.785Z,1028.19
2023-10-08T08:24:25.591Z,1028.22
2023-10-08T08:25:26.422Z,1028.21
2023-10-08T08:26:27.277Z,1028.21
2023-10-08T08:27:28.091Z,1028.22
2023-10-08T08:28:28.911Z,1028.22
2023-10-08T08:29:29.773Z,1028.20
2023-10-08T08:30:30.622Z,1028.19
2023-10-08T08:31:31.448Z,1028.21
2023-10-08T08:32:32.272Z,1028.19
2023-10-08T08:33:33.144Z,1028.21
2023-10-08T08:34:33.980Z,1028.18
2023-10-08T08:35:34.811Z,1028.18
2023-10-08T08:36:35.630Z,1028.21
2023-10-08T08:37:36.449Z,1028.21
2023-10-08T08:38:37.278Z,1028.19
2023-10-08T08:39:38.109Z,1028.17
2023-10-08T08:40:38.935Z,1028.14
2023-10-08T08:41:39.943Z,1028.15
2023-10-08T08:42:40.279Z,1028.16
2023-10-08T08:43:41.082Z,1028.17
2023-10-08T08:44:41.921Z,1028.17
2023-10-08T08:45:42.746Z,1028.14
2023-10-08T08:46:43.702Z,1028.12
2023-10-08T08:47:44.562Z,1028.10
2023-10-08T08:48:45.546Z,1028.09
2023-10-08T08:49:46.403Z,1028.07
2023-10-08T08:50:47.244Z,1028.04
2023-10-08T08:51:48.079Z,1028.07
2023-10-08T08:52:48.909Z,1028.07
2023-10-08T08:53:49.748Z,1028.07
2023-10-08T08:54:50.566Z,1028.04
2023-10-08T08:55:51.394Z,1028.04
2023-10-08T08:56:52.244Z,1028.11
2023-10-08T08:57:53.052Z,1028.15
2023-10-08T08:58:53.878Z,1028.12
2023-10-08T08:59:54.731Z,1028.09
2023-10-08T09:00:55.534Z,1028.06
2023-10-08T09:01:56.401Z,1028.08
2023-10-08T09:02:57.285Z,1028.06
2023-10-08T09:03:58.221Z,1028.02
2023-10-08T09:04:58.608Z,1028.05
2023-10-08T09:05:59.513Z,1027.99
2023-10-08T09:07:00.319Z,1027.98
2023-10-08T09:08:01.161Z,1027.99
2023-10-08T09:09:02.076Z,1028.04
2023-10-08T09:10:02.903Z,1028.09
2023-10-08T09:11:03.741Z,1028.11
2023-10-08T09:12:04.577Z,1028.11
2023-10-08T09:13:05.389Z,1028.09
2023-10-08T09:14:06.206Z,1028.10
2023-10-08T09:15:07.056Z,1028.08
2023-10-08T09:16:07.867Z,1028.11
2023-10-08T09:17:08.709Z,1028.12
2023-10-08T09:18:09.637Z,1028.12
2023-10-08T09:19:10.482Z,1028.11
2023-10-08T09:20:11.300Z,1028.10
2023-10-08T09:21:12.122Z,1028.06
2023-10-08T09:22:13.050Z,1028.07
2023-10-08T09:23:13.964Z,1028.07
2023-10-08T09:24:14.877Z,1028.08
2023-10-08T09:25:15.710Z,1028.07
2023-10-08T09:26:16.530Z,1028.07
2023-10-08T09:27:17.374Z,1028.09
2023-10-08T09:28:18.203Z,1028.12
2023-10-08T09:29:19.022Z,1028.12
2023-10-08T09:30:20.001Z,1028.15
2023-10-08T09:31:20.422Z,1028.19
2023-10-08T09:32:21.238Z,1028.20
2023-10-08T09:33:22.126Z,1028.24
2023-10-08T09:34:22.963Z,1028.25
2023-10-08T09:35:23.789Z,1028.22
2023-10-08T09:36:24.615Z,1028.21
2023-10-08T09:37:25.435Z,1028.14
2023-10-08T09:38:26.292Z,1028.08
2023-10-08T09:39:27.119Z,1028.10
2023-10-08T09:40:27.935Z,1028.14
2023-10-08T09:41:28.792Z,1028.18
2023-10-08T09:42:29.609Z,1028.20
2023-10-08T09:43:30.421Z,1028.18
2023-10-08T09:44:31.260Z,1028.21
2023-10-08T09:45:32.062Z,1028.23
2023-10-08T09:46:32.883Z,1028.20
2023-10-08T09:47:33.824Z,1028.17
2023-10-08T09:48:34.727Z,1028.21
2023-10-08T09:49:35.563Z,1028.26
2023-10-08T09:50:36.406Z,1028.26
2023-10-08T09:51:37.217Z,1028.25
2023-10-08T09:52:38.045Z,1028.18
2023-10-08T09:53:38.919Z,1028.19
2023-10-08T09:54:39.700Z,1028.26
2023-10-08T09:55:40.533Z,1028.31
2023-10-08T09:56:41.481Z,1028.34
2023-10-08T09:57:42.340Z,1028.30
2023-10-08T09:58:43.149Z,1028.23
2023-10-08T09:59:44.025Z,1028.19
2023-10-08T10:00:44.823Z,1028.22
2023-10-08T10:01:45.813Z,1028.28
2023-10-08T10:02:46.275Z,1028.37
2023-10-08T10:03:47.309Z,1028.39
2023-10-08T10:04:47.675Z,1028.39
2023-10-08T10:05:48.504Z,1028.29
2023-10-08T10:06:49.325Z,1028.20
2023-10-08T10:07:50.165Z,1028.25
2023-10-08T10:08:51.025Z,1028.32
2023-10-08T10:09:51.821Z,1028.36
2023-10-08T10:10:52.640Z,1028.33
2023-10-08T10:11:53.494Z,1028.32
2023-10-08T10:12:54.306Z,1028.35
2023-10-08T10:13:55.130Z,1028.33
2023-10-08T10:14:55.948Z,1028.32
2023-10-08T10:15:56.816Z,1028.31
2023-10-08T10:16:57.614Z,1028.37
2023-10-08T10:17:58.534Z,1028.42
2023-10-08T10:18:59.405Z,1028.46
2023-10-08T10:20:00.243Z,1028.46
2023-10-08T10:21:01.143Z,1028.44
2023-10-08T10:22:01.954Z,1028.37
2023-10-08T10:23:02.764Z,1028.32
2023-10-08T10:24:03.635Z,1028.30
2023-10-08T10:25:04.471Z,1028.33
2023-10-08T10:26:05.308Z,1028.38
2023-10-08T10:27:06.163Z,1028.42
2023-10-08T10:28:06.959Z,1028.39
2023-10-08T10:29:07.784Z,1028.34
2023-10-08T10:30:08.710Z,1028.28
2023-10-08T10:31:09.551Z,1028.27
2023-10-08T10:32:10.338Z,1028.28
2023-10-08T10:33:11.259Z,1028.27
2023-10-08T10:34:12.378Z,1028.22
2023-10-08T10:35:12.792Z,1028.21
2023-10-08T10:36:13.640Z,1028.23
2023-10-08T10:37:16.367Z,1028.24
2023-10-08T10:38:15.177Z,1028.27
2023-10-08T10:39:15.991Z,1028.30
2023-10-08T10:40:16.827Z,1028.31
2023-10-08T10:41:17.646Z,1028.33
2023-10-08T10:42:18.469Z,1028.33
2023-10-08T10:43:19.297Z,1028.31
2023-10-08T10:44:20.128Z,1028.33
2023-10-08T10:45:21.001Z,1028.36
2023-10-08T10:46:21.855Z,1028.39
2023-10-08T10:47:22.635Z,1028.38
2023-10-08T10:48:23.599Z,1028.35
2023-10-08T10:49:23.954Z,1028.34
2023-10-08T10:50:24.795Z,1028.40
2023-10-08T10:51:25.608Z,1028.40
2023-10-08T10:52:26.437Z,1028.38
2023-10-08T10:53:27.306Z,1028.36
2023-10-08T10:54:28.102Z,1028.35
2023-10-08T10:55:28.935Z,1028.35
2023-10-08T10:56:29.784Z,1028.32
2023-10-08T10:57:30.618Z,1028.35
2023-10-08T10:58:31.429Z,1028.36
2023-10-08T10:59:32.282Z,1028.33
2023-10-08T11:00:33.094Z,1028.33
2023-10-08T11:01:33.952Z,1028.27
2023-10-08T11:02:34.864Z,1028.22
2023-10-08T11:03:35.817Z,1028.26
2023-10-08T11:04:36.696Z,1028.32
2023-10-08T11:05:37.541Z,1028.32
2023-10-08T11:06:38.359Z,1028.28
2023-10-08T11:07:39.172Z,1028.19
2023-10-08T11:08:40.062Z,1028.18
2023-10-08T11:09:40.894Z,1028.23
2023-10-08T11:10:41.729Z,1028.27
2023-10-08T11:11:42.593Z,1028.26
2023-10-08T11:12:43.366Z,1028.28
2023-10-08T11:13:44.213Z,1028.26
2023-10-08T11:14:45.045Z,1028.26
2023-10-08T11:15:45.877Z,1028.22
2023-10-08T11:16:46.673Z,1028.17
2023-10-08T11:17:47.574Z,1028.10
2023-10-08T11:18:48.564Z,1028.05
2023-10-08T11:19:48.888Z,1028.07
2023-10-08T11:20:49.726Z,1028.10
2023-10-08T11:21:50.533Z,1028.17
2023-10-08T11:22:51.370Z,1028.25
2023-10-08T11:23:52.210Z,1028.28
2023-10-08T11:24:53.057Z,1028.30
2023-10-08T11:25:53.851Z,1028.37
2023-10-08T11:26:54.745Z,1028.38
2023-10-08T11:27:55.547Z,1028.39
2023-10-08T11:28:56.368Z,1028.38
2023-10-08T11:29:57.230Z,1028.45
2023-10-08T11:30:58.081Z,1028.51
2023-10-08T11:31:58.889Z,1028.50
2023-10-08T11:32:59.802Z,1028.51
2023-10-08T11:34:00.638Z,1028.56
2023-10-08T11:35:01.513Z,1028.60
2023-10-08T11:36:02.354Z,1028.61
2023-10-08T11:37:03.158Z,1028.60
2023-10-08T11:38:03.975Z,1028.62
2023-10-08T11:39:04.816Z,1028.65
2023-10-08T11:40:05.635Z,1028.68
2023-10-08T11:41:06.456Z,1028.68
2023-10-08T11:42:07.362Z,1028.66
2023-10-08T11:43:08.188Z,1028.67
2023-10-08T11:44:11.019Z,1028.66
2023-10-08T11:45:09.652Z,1028.66
2023-10-08T11:46:10.532Z,1028.63
2023-10-08T11:47:11.381Z,1028.60
2023-10-08T11:48:12.267Z,1028.61
2023-10-08T11:49:13.218Z,1028.62
2023-10-08T11:50:14.022Z,1028.62
2023-10-08T11:51:14.849Z,1028.63
2023-10-08T11:52:15.681Z,1028.61
2023-10-08T11:53:16.502Z,1028.59
2023-10-08T11:54:17.541Z,1028.57
2023-10-08T11:55:17.970Z,1028.56
2023-10-08T11:56:18.807Z,1028.56
2023-10-08T11:57:19.626Z,1028.55
2023-10-08T11:58:20.453Z,1028.57
2023-10-08T11:59:21.272Z,1028.56
2023-10-08T12:00:31.979Z,1028.55
2023-10-08T12:01:23.873Z,1028.58
2023-10-08T12:02:23.665Z,1028.53
2023-10-08T12:03:24.743Z,1028.50
2023-10-08T12:04:25.374Z,1028.52
2023-10-08T12:05:26.151Z,1028.57
2023-10-08T12:06:26.769Z,1028.55
2023-10-08T12:07:27.557Z,1028.58
2023-10-08T12:08:28.402Z,1028.53
2023-10-08T12:09:29.200Z,1028.42
2023-10-08T12:10:30.039Z,1028.48
2023-10-08T12:11:30.955Z,1028.45
2023-10-08T12:12:31.435Z,1028.41
2023-10-08T12:13:32.257Z,1028.38
2023-10-08T12:14:33.141Z,1028.40
2023-10-08T12:15:33.939Z,1028.38
2023-10-08T12:16:34.778Z,1028.43